Time;durP1;ratioP1;P1;durP2;ratioP2;P2;SDS_P1;SDS_P2;PMS_P1;PMS_P2;Temp;Humidity;BMP_temperature;BMP_pressure;BME280_temperature;BME280_humidity;BME280_pressure;Samples;Min_cycle;Max_cycle;Signal;HPM_P1;HPM_P2
2021/06/26 00:00:52;;;;;;;9.98;4.00;;;;;;;;;;5074046;28;20028;-75
2021/06/26 00:03:22;;;;;;;10.73;4.60;;;;;;;;;;5074225;28;20505;-76
2021/06/26 00:05:48;;;;;;;5.40;4.57;;;;;;;;;;5070398;28;20136;-75
2021/06/26 00:08:14;;;;;;;6.78;4.72;;;;;;;;;;5069164;28;20537;-76
2021/06/26 00:10:41;;;;;;;9.07;4.72;;;;;;;;;;5053659;28;20028;-76
2021/06/26 00:13:06;;;;;;;7.72;4.45;;;;;;;;;;5053977;28;20044;-75
2021/06/26 00:15:32;;;;;;;16.50;5.18;;;;;;;;;;5053850;28;20059;-75
2021/06/26 00:17:57;;;;;;;11.80;4.18;;;;;;;;;;5069279;28;20037;-75
2021/06/26 00:20:23;;;;;;;6.10;5.03;;;;;;;;;;5072720;28;20531;-76
2021/06/26 00:22:48;;;;;;;6.70;4.18;;;;;;;;;;5073242;28;20112;-76
2021/06/26 00:25:14;;;;;;;9.43;4.97;;;;;;;;;;5073478;28;20458;-75
2021/06/26 00:27:39;;;;;;;4.63;3.97;;;;;;;;;;5073464;28;20032;-75
2021/06/26 00:30:05;;;;;;;5.10;4.00;;;;;;;;;;5073620;28;20072;-75
2021/06/26 00:32:31;;;;;;;5.43;4.30;;;;;;;;;;5073705;28;20037;-76
2021/06/26 00:34:56;;;;;;;7.90;4.43;;;;;;;;;;5073362;28;20082;-75
2021/06/26 00:37:22;;;;;;;6.63;4.68;;;;;;;;;;5070341;28;20444;-75
2021/06/26 00:39:47;;;;;;;6.93;4.93;;;;;;;;;;5064732;28;20041;-76
2021/06/26 00:42:12;;;;;;;11.38;4.72;;;;;;;;;;5053243;28;20029;-75
2021/06/26 00:44:38;;;;;;;11.52;5.20;;;;;;;;;;5053360;28;20049;-76
2021/06/26 00:47:11;;;;;;;7.97;5.00;;;;;;;;;;5053350;28;20068;-75
2021/06/26 00:49:37;;;;;;;6.05;4.30;;;;;;;;;;5053317;28;20116;-76
2021/06/26 00:52:03;;;;;;;9.63;4.88;;;;;;;;;;5060619;28;20454;-76
2021/06/26 00:54:28;;;;;;;5.53;4.80;;;;;;;;;;5073220;28;20043;-76
2021/06/26 00:56:55;;;;;;;9.82;5.50;;;;;;;;;;5071639;28;20024;-75
2021/06/26 00:59:20;;;;;;;7.38;5.07;;;;;;;;;;5071930;28;20040;-75
2021/06/26 01:01:46;;;;;;;9.65;4.55;;;;;;;;;;5073311;28;20037;-76
2021/06/26 01:04:11;;;;;;;9.30;4.78;;;;;;;;;;5071839;28;20036;-76
2021/06/26 01:06:37;;;;;;;16.45;5.32;;;;;;;;;;5071386;28;20076;-76
2021/06/26 01:09:02;;;;;;;6.78;4.95;;;;;;;;;;5070797;28;20021;-76
2021/06/26 01:11:29;;;;;;;12.85;5.00;;;;;;;;;;5064241;28;20037;-76
2021/06/26 01:13:54;;;;;;;8.45;5.13;;;;;;;;;;5055362;28;20039;-76
2021/06/26 01:16:20;;;;;;;8.80;4.60;;;;;;;;;;5056768;28;20041;-76
2021/06/26 01:18:45;;;;;;;5.30;4.45;;;;;;;;;;5071333;28;20113;-75
2021/06/26 01:21:10;;;;;;;6.75;4.72;;;;;;;;;;5072896;28;20039;-77
2021/06/26 01:23:44;;;;;;;18.17;5.32;;;;;;;;;;5072868;28;20075;-75
2021/06/26 01:26:09;;;;;;;10.23;4.95;;;;;;;;;;5072777;28;20036;-76
2021/06/26 01:28:35;;;;;;;6.57;4.72;;;;;;;;;;5075255;28;20135;-75
2021/06/26 01:31:00;;;;;;;13.48;5.93;;;;;;;;;;5077242;28;20091;-75
2021/06/26 01:33:26;;;;;;;6.95;5.63;;;;;;;;;;5077060;28;20032;-76
2021/06/26 01:35:51;;;;;;;8.48;5.60;;;;;;;;;;5076797;28;20470;-76
2021/06/26 01:38:17;;;;;;;7.20;4.88;;;;;;;;;;5076340;28;20032;-76
2021/06/26 01:40:42;;;;;;;9.27;4.95;;;;;;;;;;5071015;28;20032;-75
2021/06/26 01:43:11;;;;;;;7.78;4.18;;;;;;;;;;5056963;28;20036;-76
2021/06/26 01:45:37;;;;;;;7.53;4.40;;;;;;;;;;5056744;28;20144;-76
2021/06/26 01:48:03;;;;;;;10.25;4.93;;;;;;;;;;5055350;28;20542;-75
2021/06/26 01:50:29;;;;;;;6.90;4.05;;;;;;;;;;5069621;28;20036;-76
2021/06/26 01:52:55;;;;;;;6.63;4.50;;;;;;;;;;5075696;28;20047;-76
2021/06/26 01:55:22;;;;;;;5.95;4.45;;;;;;;;;;5076258;28;20029;-76
2021/06/26 01:57:49;;;;;;;14.02;5.25;;;;;;;;;;5074464;28;20040;-76
2021/06/26 02:00:16;;;;;;;15.38;5.55;;;;;;;;;;5075427;28;20037;-76
2021/06/26 02:02:42;;;;;;;10.75;5.35;;;;;;;;;;5058360;28;20048;-75
2021/06/26 02:05:09;;;;;;;10.90;4.93;;;;;;;;;;5074874;28;20105;-75
2021/06/26 02:07:35;;;;;;;7.63;5.20;;;;;;;;;;5076158;28;20041;-76
2021/06/26 02:10:01;;;;;;;4.95;4.25;;;;;;;;;;5071846;28;20354;-75
2021/06/26 02:12:27;;;;;;;17.27;4.93;;;;;;;;;;5064977;28;20119;-75
2021/06/26 02:14:53;;;;;;;13.40;4.65;;;;;;;;;;5076270;28;20082;-76
2021/06/26 02:17:22;;;;;;;14.90;5.45;;;;;;;;;;5076162;28;20123;-75
2021/06/26 02:19:49;;;;;;;10.20;4.45;;;;;;;;;;5067814;28;20052;-76
2021/06/26 02:22:14;;;;;;;8.32;4.95;;;;;;;;;;5071788;28;20063;-76
2021/06/26 02:24:40;;;;;;;6.90;5.30;;;;;;;;;;5065346;28;20068;-76
2021/06/26 02:27:06;;;;;;;8.63;4.70;;;;;;;;;;5055648;28;20037;-75
2021/06/26 02:29:32;;;;;;;9.02;4.32;;;;;;;;;;5056007;28;20040;-76
2021/06/26 02:31:58;;;;;;;10.30;4.18;;;;;;;;;;5068774;28;20116;-76
2021/06/26 02:34:23;;;;;;;7.78;4.10;;;;;;;;;;5055695;28;20108;-76
2021/06/26 02:36:49;;;;;;;8.07;4.45;;;;;;;;;;5055436;28;20499;-76
2021/06/26 02:39:14;;;;;;;8.50;4.78;;;;;;;;;;5055678;28;20036;-76
2021/06/26 02:41:40;;;;;;;8.18;5.32;;;;;;;;;;5066663;28;20436;-76
2021/06/26 02:44:05;;;;;;;8.73;4.95;;;;;;;;;;5075502;28;20067;-75
2021/06/26 02:46:31;;;;;;;13.15;5.75;;;;;;;;;;5074242;28;20028;-76
2021/06/26 02:48:57;;;;;;;9.63;5.60;;;;;;;;;;5075428;28;20078;-76
2021/06/26 02:51:22;;;;;;;9.88;5.45;;;;;;;;;;5059388;28;20447;-76
2021/06/26 02:53:48;;;;;;;8.10;5.10;;;;;;;;;;5055289;28;20041;-76
2021/06/26 02:56:13;;;;;;;8.65;4.30;;;;;;;;;;5069746;28;20095;-75
2021/06/26 02:58:38;;;;;;;7.28;4.78;;;;;;;;;;5075272;28;20489;-76
2021/06/26 03:01:04;;;;;;;13.05;4.93;;;;;;;;;;5075421;28;20032;-76
2021/06/26 03:03:29;;;;;;;9.68;5.20;;;;;;;;;;5075269;28;20066;-76
2021/06/26 03:05:55;;;;;;;10.38;5.22;;;;;;;;;;5075057;28;20068;-76
2021/06/26 03:08:20;;;;;;;8.65;5.43;;;;;;;;;;5074843;28;20058;-76
2021/06/26 03:10:46;;;;;;;13.55;6.47;;;;;;;;;;5073353;28;20039;-76
2021/06/26 03:13:11;;;;;;;10.38;5.55;;;;;;;;;;5054799;28;20383;-75
2021/06/26 03:15:37;;;;;;;14.90;5.25;;;;;;;;;;5059229;28;20028;-76
2021/06/26 03:18:02;;;;;;;4.63;4.15;;;;;;;;;;5054696;28;20394;-76
2021/06/26 03:20:28;;;;;;;8.20;3.90;;;;;;;;;;5054362;28;20524;-76
2021/06/26 03:22:53;;;;;;;13.60;4.60;;;;;;;;;;5056637;28;20110;-76
2021/06/26 03:25:19;;;;;;;7.90;3.78;;;;;;;;;;5061528;28;20068;-76
2021/06/26 03:27:44;;;;;;;14.00;4.90;;;;;;;;;;5067358;28;20059;-76
2021/06/26 03:30:10;;;;;;;14.77;5.28;;;;;;;;;;5054824;28;20033;-75
2021/06/26 03:32:35;;;;;;;15.80;4.93;;;;;;;;;;5062868;28;20111;-76
2021/06/26 03:35:02;;;;;;;10.93;4.97;;;;;;;;;;5074663;28;20032;-76
2021/06/26 03:37:27;;;;;;;9.80;5.40;;;;;;;;;;5074537;28;20038;-76
2021/06/26 03:39:52;;;;;;;11.43;5.88;;;;;;;;;;5074661;28;20028;-76
2021/06/26 03:42:18;;;;;;;8.25;6.30;;;;;;;;;;5060806;28;20532;-76
2021/06/26 03:44:43;;;;;;;11.30;5.82;;;;;;;;;;5074376;28;20041;-76
2021/06/26 03:47:09;;;;;;;9.63;5.55;;;;;;;;;;5073840;28;20033;-76
2021/06/26 03:49:37;;;;;;;9.23;5.07;;;;;;;;;;5072601;28;20052;-76
2021/06/26 03:52:04;;;;;;;9.05;5.40;;;;;;;;;;5074444;28;20044;-76
2021/06/26 03:54:29;;;;;;;18.65;5.35;;;;;;;;;;5073170;28;20020;-76
2021/06/26 03:56:55;;;;;;;8.45;5.28;;;;;;;;;;5073770;28;20386;-76
2021/06/26 03:59:20;;;;;;;11.35;5.93;;;;;;;;;;5072658;28;20114;-76
2021/06/26 04:01:46;;;;;;;12.57;5.47;;;;;;;;;;5073757;28;20032;-76
2021/06/26 04:04:11;;;;;;;10.48;4.88;;;;;;;;;;5073638;28;20123;-76
2021/06/26 04:06:37;;;;;;;10.27;5.80;;;;;;;;;;5073761;28;20037;-76
2021/06/26 04:09:03;;;;;;;11.93;5.55;;;;;;;;;;5073739;28;20086;-76
2021/06/26 04:11:28;;;;;;;7.93;5.97;;;;;;;;;;5068554;28;20094;-77
2021/06/26 04:13:54;;;;;;;11.35;6.32;;;;;;;;;;5066452;28;20036;-76
2021/06/26 04:16:19;;;;;;;12.45;6.32;;;;;;;;;;5053923;28;20036;-76
2021/06/26 04:18:45;;;;;;;10.32;5.95;;;;;;;;;;5053780;28;20037;-76
2021/06/26 04:21:13;;;;;;;8.43;5.88;;;;;;;;;;5058682;28;20040;-76
2021/06/26 04:23:38;;;;;;;13.68;6.85;;;;;;;;;;5053668;28;20506;-76
2021/06/26 04:26:04;;;;;;;11.43;5.85;;;;;;;;;;5053876;28;20037;-76
2021/06/26 04:28:30;;;;;;;7.30;6.15;;;;;;;;;;5053206;28;20041;-76
2021/06/26 04:30:57;;;;;;;8.68;6.15;;;;;;;;;;5053758;28;20025;-76
2021/06/26 04:33:25;;;;;;;17.98;6.60;;;;;;;;;;5053577;28;20040;-75
2021/06/26 04:35:50;;;;;;;10.20;6.53;;;;;;;;;;5068246;28;20059;-76
2021/06/26 04:38:21;;;;;;;14.70;6.13;;;;;;;;;;5073178;28;20799;-76
2021/06/26 04:40:47;;;;;;;17.02;6.57;;;;;;;;;;5073551;28;20081;-76
2021/06/26 04:43:12;;;;;;;13.85;7.45;;;;;;;;;;5071809;28;20505;-76
2021/06/26 04:45:38;;;;;;;16.23;6.60;;;;;;;;;;5067675;28;20048;-77
2021/06/26 04:48:04;;;;;;;18.70;6.75;;;;;;;;;;5052005;28;20029;-76
2021/06/26 04:50:31;;;;;;;12.88;5.80;;;;;;;;;;5052181;28;20027;-76
2021/06/26 04:52:56;;;;;;;10.48;6.05;;;;;;;;;;5053473;28;20044;-75
2021/06/26 04:55:22;;;;;;;11.55;6.40;;;;;;;;;;5053333;28;20040;-76
2021/06/26 04:57:47;;;;;;;10.00;6.65;;;;;;;;;;5057556;28;20064;-76
2021/06/26 05:00:13;;;;;;;10.68;6.78;;;;;;;;;;5072794;28;20117;-77
2021/06/26 05:02:38;;;;;;;9.93;5.97;;;;;;;;;;5072427;28;20036;-78
2021/06/26 05:05:05;;;;;;;12.10;6.43;;;;;;;;;;5072993;28;20028;-76
2021/06/26 05:07:31;;;;;;;10.60;5.70;;;;;;;;;;5072980;28;20433;-76
2021/06/26 05:09:57;;;;;;;12.02;5.78;;;;;;;;;;5073201;28;20370;-76
2021/06/26 05:12:22;;;;;;;17.88;6.15;;;;;;;;;;5073228;28;20044;-75
2021/06/26 05:14:47;;;;;;;9.93;5.95;;;;;;;;;;5060999;28;20033;-78
2021/06/26 05:17:13;;;;;;;15.63;6.55;;;;;;;;;;5072707;28;20044;-76
2021/06/26 05:19:38;;;;;;;10.98;7.22;;;;;;;;;;5070351;28;20047;-76
2021/06/26 05:22:04;;;;;;;12.38;6.43;;;;;;;;;;5069870;28;20043;-76
2021/06/26 05:24:29;;;;;;;13.52;6.30;;;;;;;;;;5052632;28;20060;-76
2021/06/26 05:26:55;;;;;;;9.43;6.10;;;;;;;;;;5052799;28;20037;-76
2021/06/26 05:29:20;;;;;;;12.35;6.18;;;;;;;;;;5052893;28;20025;-76
2021/06/26 05:31:46;;;;;;;14.77;6.70;;;;;;;;;;5056374;28;20501;-75
2021/06/26 05:34:11;;;;;;;18.92;6.38;;;;;;;;;;5052883;28;20431;-76
2021/06/26 05:36:37;;;;;;;7.68;5.53;;;;;;;;;;5052730;28;20379;-76
2021/06/26 05:39:04;;;;;;;16.20;5.80;;;;;;;;;;5052477;28;20493;-76
2021/06/26 05:41:29;;;;;;;13.98;7.78;;;;;;;;;;5052875;28;20040;-76
2021/06/26 05:43:54;;;;;;;15.32;6.22;;;;;;;;;;5065255;28;20470;-76
2021/06/26 05:46:20;;;;;;;8.65;6.32;;;;;;;;;;5072527;28;20032;-76
2021/06/26 05:48:45;;;;;;;11.13;6.18;;;;;;;;;;5071557;28;20039;-75
2021/06/26 05:51:14;;;;;;;16.45;6.72;;;;;;;;;;5072662;28;20036;-75
2021/06/26 05:53:40;;;;;;;14.00;7.03;;;;;;;;;;5070861;28;20115;-78
2021/06/26 05:56:05;;;;;;;10.57;6.50;;;;;;;;;;5071636;28;20095;-76
2021/06/26 05:58:38;;;;;;;15.50;6.10;;;;;;;;;;5072563;28;20043;-75
2021/06/26 06:01:10;;;;;;;10.45;6.25;;;;;;;;;;5072556;28;20044;-74
2021/06/26 06:03:35;;;;;;;13.18;6.28;;;;;;;;;;5072488;28;20075;-75
2021/06/26 06:06:01;;;;;;;11.75;6.10;;;;;;;;;;5072467;28;20067;-75
2021/06/26 06:08:26;;;;;;;11.15;6.25;;;;;;;;;;5071932;28;20071;-75
2021/06/26 06:10:52;;;;;;;9.63;5.90;;;;;;;;;;5072524;28;20068;-74
2021/06/26 06:13:19;;;;;;;9.80;5.93;;;;;;;;;;5072890;28;20044;-75
2021/06/26 06:15:46;;;;;;;12.82;6.90;;;;;;;;;;5076144;28;20799;-74
2021/06/26 06:18:14;;;;;;;11.25;5.75;;;;;;;;;;5075509;28;20033;-74
2021/06/26 06:20:40;;;;;;;12.73;5.20;;;;;;;;;;5076079;28;20082;-74
2021/06/26 06:23:05;;;;;;;13.52;5.18;;;;;;;;;;5075169;28;20040;-75
2021/06/26 06:25:31;;;;;;;12.85;4.68;;;;;;;;;;5074423;28;20036;-74
2021/06/26 06:27:57;;;;;;;11.73;5.38;;;;;;;;;;5076039;28;20037;-78
2021/06/26 06:30:23;;;;;;;11.98;4.68;;;;;;;;;;5057291;28;20029;-77
2021/06/26 06:32:48;;;;;;;6.60;4.30;;;;;;;;;;5072472;28;20048;-76
2021/06/26 06:35:14;;;;;;;10.50;4.20;;;;;;;;;;5074699;28;20032;-76
2021/06/26 06:37:39;;;;;;;10.80;3.75;;;;;;;;;;5075396;28;20119;-76
2021/06/26 06:40:07;;;;;;;7.38;4.40;;;;;;;;;;5074747;28;20151;-76
2021/06/26 06:42:33;;;;;;;5.13;4.50;;;;;;;;;;5074935;28;20036;-76
2021/06/26 06:44:59;;;;;;;8.38;4.45;;;;;;;;;;5074358;28;20572;-76
2021/06/26 06:47:24;;;;;;;6.43;3.75;;;;;;;;;;5075949;28;20033;-76
2021/06/26 06:49:50;;;;;;;5.65;3.97;;;;;;;;;;5075935;28;20032;-76
2021/06/26 06:52:15;;;;;;;5.45;3.38;;;;;;;;;;5074554;28;20047;-75
2021/06/26 06:54:41;;;;;;;7.97;3.78;;;;;;;;;;5075538;28;20028;-76
2021/06/26 06:57:07;;;;;;;7.45;3.67;;;;;;;;;;5075587;28;20474;-75
2021/06/26 06:59:32;;;;;;;7.18;3.92;;;;;;;;;;5075547;28;20085;-75
2021/06/26 07:01:58;;;;;;;6.65;3.63;;;;;;;;;;5074515;28;20040;-75
2021/06/26 07:04:24;;;;;;;13.68;4.00;;;;;;;;;;5075458;28;20033;-76
2021/06/26 07:06:50;;;;;;;7.38;3.88;;;;;;;;;;5074432;28;20059;-74
2021/06/26 07:09:15;;;;;;;9.43;3.88;;;;;;;;;;5075284;28;20075;-75
2021/06/26 07:11:40;;;;;;;7.63;3.85;;;;;;;;;;5074485;28;20119;-75
2021/06/26 07:14:06;;;;;;;7.88;3.88;;;;;;;;;;5075034;28;20037;-76
2021/06/26 07:16:32;;;;;;;5.50;3.47;;;;;;;;;;5075273;28;20467;-76
2021/06/26 07:18:58;;;;;;;7.80;3.70;;;;;;;;;;5075074;28;20055;-76
2021/06/26 07:21:23;;;;;;;4.60;3.22;;;;;;;;;;5075282;28;20039;-76
2021/06/26 07:23:49;;;;;;;9.05;3.17;;;;;;;;;;5066376;28;20039;-75
2021/06/26 07:26:15;;;;;;;4.38;2.92;;;;;;;;;;5054148;28;20032;-75
2021/06/26 07:28:40;;;;;;;5.03;3.13;;;;;;;;;;5067202;28;20160;-75
2021/06/26 07:31:05;;;;;;;5.65;3.10;;;;;;;;;;5071268;28;20032;-76
2021/06/26 07:33:31;;;;;;;6.90;2.85;;;;;;;;;;5072503;28;20115;-77
2021/06/26 07:35:56;;;;;;;5.38;3.22;;;;;;;;;;5073012;28;20035;-77
2021/06/26 07:38:23;;;;;;;8.48;3.20;;;;;;;;;;5075015;28;20119;-77
2021/06/26 07:40:49;;;;;;;3.72;3.00;;;;;;;;;;5074556;28;20032;-76
2021/06/26 07:43:14;;;;;;;6.90;3.17;;;;;;;;;;5070352;28;20021;-79
2021/06/26 07:45:40;;;;;;;3.60;3.05;;;;;;;;;;5073971;28;20471;-77
2021/06/26 07:48:06;;;;;;;6.28;3.28;;;;;;;;;;5074644;28;20117;-77
2021/06/26 07:50:31;;;;;;;5.47;3.17;;;;;;;;;;5073176;28;20033;-76
2021/06/26 07:52:56;;;;;;;7.28;2.97;;;;;;;;;;5059476;28;20114;-77
2021/06/26 07:55:22;;;;;;;9.20;3.47;;;;;;;;;;5054358;28;20049;-77
2021/06/26 07:57:47;;;;;;;3.53;2.60;;;;;;;;;;5059757;28;20039;-76
2021/06/26 08:00:13;;;;;;;5.38;2.92;;;;;;;;;;5074940;28;20039;-78
2021/06/26 08:02:39;;;;;;;4.18;2.90;;;;;;;;;;5075161;28;20089;-78
2021/06/26 08:05:05;;;;;;;10.65;4.18;;;;;;;;;;5087497;28;20028;-76
2021/06/26 08:07:30;;;;;;;6.72;3.00;;;;;;;;;;5055014;28;20040;-77
2021/06/26 08:09:56;;;;;;;4.40;2.90;;;;;;;;;;5076197;28;20068;-80
2021/06/26 08:12:21;;;;;;;5.47;2.75;;;;;;;;;;5076437;28;20037;-78
2021/06/26 08:14:47;;;;;;;6.70;2.95;;;;;;;;;;5074341;28;20043;-76
2021/06/26 08:17:14;;;;;;;6.05;2.90;;;;;;;;;;5073321;28;20039;-76
2021/06/26 08:19:40;;;;;;;6.25;3.20;;;;;;;;;;5071445;28;20111;-77
2021/06/26 08:22:05;;;;;;;4.47;2.67;;;;;;;;;;5070330;28;20033;-77
2021/06/26 08:24:32;;;;;;;3.83;2.60;;;;;;;;;;5075792;28;20032;-77
2021/06/26 08:27:01;;;;;;;4.15;3.10;;;;;;;;;;5076474;28;20035;-77
2021/06/26 08:29:27;;;;;;;7.43;3.20;;;;;;;;;;5074605;28;20028;-77
2021/06/26 08:31:53;;;;;;;5.10;3.35;;;;;;;;;;5073117;28;20036;-77
2021/06/26 08:34:18;;;;;;;3.47;2.75;;;;;;;;;;5072417;28;20036;-77
2021/06/26 08:36:44;;;;;;;4.78;2.75;;;;;;;;;;5073375;28;20127;-78
2021/06/26 08:39:09;;;;;;;8.65;3.30;;;;;;;;;;5072364;28;20025;-78
2021/06/26 08:41:40;;;;;;;12.60;3.80;;;;;;;;;;5074600;28;20068;-78
2021/06/26 08:44:07;;;;;;;5.07;2.90;;;;;;;;;;5078579;28;20406;-76
2021/06/26 08:46:32;;;;;;;4.40;2.72;;;;;;;;;;5079912;28;20059;-77
2021/06/26 08:48:58;;;;;;;7.50;3.00;;;;;;;;;;5077546;28;20470;-78
2021/06/26 08:51:24;;;;;;;7.78;2.88;;;;;;;;;;5078803;28;20430;-78
2021/06/26 08:53:50;;;;;;;6.18;3.63;;;;;;;;;;5073668;28;20059;-77
2021/06/26 08:56:15;;;;;;;3.72;2.72;;;;;;;;;;5074108;28;20455;-77
2021/06/26 08:58:40;;;;;;;3.10;2.55;;;;;;;;;;5073118;28;20032;-78
2021/06/26 09:01:06;;;;;;;4.13;2.70;;;;;;;;;;5074141;28;20036;-77
2021/06/26 09:03:32;;;;;;;5.03;2.38;;;;;;;;;;5073951;28;20024;-77
2021/06/26 09:06:03;;;;;;;4.70;2.42;;;;;;;;;;5074433;28;20429;-77
2021/06/26 09:08:29;;;;;;;6.70;2.53;;;;;;;;;;5074422;28;20127;-78
2021/06/26 09:10:54;;;;;;;5.65;2.83;;;;;;;;;;5075684;28;20478;-77
2021/06/26 09:13:25;;;;;;;4.55;2.35;;;;;;;;;;5076303;28;20036;-77
2021/06/26 09:16:06;;;;;;;4.50;2.60;;;;;;;;;;5075768;28;20356;-77
2021/06/26 09:18:39;;;;;;;4.65;2.85;;;;;;;;;;5076786;28;20058;-80
2021/06/26 09:21:23;;;;;;;4.13;2.67;;;;;;;;;;5076121;28;20505;-78
2021/06/26 09:24:01;;;;;;;3.25;2.40;;;;;;;;;;5072121;28;20040;-77
2021/06/26 09:26:28;;;;;;;7.35;3.60;;;;;;;;;;5073329;28;20032;-76
2021/06/26 09:28:53;;;;;;;7.65;4.22;;;;;;;;;;5072280;28;20419;-76
2021/06/26 09:31:21;;;;;;;7.95;4.47;;;;;;;;;;5072900;28;20044;-76
2021/06/26 09:33:58;;;;;;;5.85;5.25;;;;;;;;;;5073213;28;20548;-76
2021/06/26 09:36:32;;;;;;;5.95;4.20;;;;;;;;;;5072956;28;20066;-76
2021/06/26 09:39:00;;;;;;;9.68;4.43;;;;;;;;;;5072992;28;20033;-77
2021/06/26 09:41:27;;;;;;;6.18;5.07;;;;;;;;;;5074056;28;20115;-80
2021/06/26 09:43:53;;;;;;;8.40;5.07;;;;;;;;;;5076533;28;20081;-79
2021/06/26 09:46:19;;;;;;;5.55;3.60;;;;;;;;;;5078097;28;20509;-83
2021/06/26 09:48:59;;;;;;;5.00;4.22;;;;;;;;;;5078379;28;20040;-83
2021/06/26 09:51:32;;;;;;;8.93;3.95;;;;;;;;;;5079599;28;20071;-78
2021/06/26 09:54:03;;;;;;;5.22;3.88;;;;;;;;;;5080853;28;20032;-81
2021/06/26 09:56:56;;;;;;;5.72;4.65;;;;;;;;;;5080248;28;20037;-78
2021/06/26 09:59:30;;;;;;;6.43;4.68;;;;;;;;;;5077002;28;20045;-79
2021/06/26 10:01:57;;;;;;;4.90;4.03;;;;;;;;;;5082389;28;20032;-80
2021/06/26 10:04:22;;;;;;;6.28;3.92;;;;;;;;;;5079189;28;20040;-79
2021/06/26 10:06:49;;;;;;;5.30;4.18;;;;;;;;;;5079588;28;20058;-81
2021/06/26 10:09:15;;;;;;;6.13;4.45;;;;;;;;;;5080481;28;20036;-83
2021/06/26 10:11:40;;;;;;;8.38;4.43;;;;;;;;;;5081377;28;20055;-79
2021/06/26 10:14:11;;;;;;;6.53;4.07;;;;;;;;;;5063188;28;20062;-80
2021/06/26 10:16:39;;;;;;;6.78;4.28;;;;;;;;;;5079556;28;20032;-79
2021/06/26 10:19:08;;;;;;;9.52;4.60;;;;;;;;;;5079320;28;20033;-79
2021/06/26 10:21:35;;;;;;;12.13;5.20;;;;;;;;;;5082932;28;20028;-81
2021/06/26 10:24:04;;;;;;;8.43;4.03;;;;;;;;;;5085519;28;20433;-84
2021/06/26 10:26:36;;;;;;;5.95;4.10;;;;;;;;;;5084548;28;20028;-85
2021/06/26 10:29:02;;;;;;;9.70;4.00;;;;;;;;;;5082861;28;20033;-82
2021/06/26 10:31:38;;;;;;;8.23;4.57;;;;;;;;;;5083100;28;20033;-80
2021/06/26 10:34:14;;;;;;;6.05;3.97;;;;;;;;;;5083231;28;20044;-80
2021/06/26 10:36:40;;;;;;;8.15;3.88;;;;;;;;;;5079924;28;20037;-80
2021/06/26 10:39:17;;;;;;;5.47;3.72;;;;;;;;;;5081427;28;20039;-80
2021/06/26 10:41:42;;;;;;;5.50;3.72;;;;;;;;;;5079977;28;20275;-80
2021/06/26 10:44:07;;;;;;;5.38;3.70;;;;;;;;;;5080470;28;20071;-81
2021/06/26 10:46:33;;;;;;;4.32;3.45;;;;;;;;;;5080769;28;20855;-80
2021/06/26 10:49:05;;;;;;;9.10;3.72;;;;;;;;;;5081366;28;20041;-81
2021/06/26 10:51:39;;;;;;;4.68;3.55;;;;;;;;;;5081674;28;20100;-81
2021/06/26 10:54:14;;;;;;;5.70;3.33;;;;;;;;;;5081155;28;20038;-82
2021/06/26 10:56:40;;;;;;;8.13;3.70;;;;;;;;;;5081845;28;20463;-82
2021/06/26 10:59:11;;;;;;;4.25;2.90;;;;;;;;;;5081037;28;20082;-82
2021/06/26 11:01:37;;;;;;;3.72;3.28;;;;;;;;;;5080603;28;20047;-81
2021/06/26 11:04:08;;;;;;;5.75;3.25;;;;;;;;;;5079294;28;20036;-81
2021/06/26 11:06:35;;;;;;;2.83;2.55;;;;;;;;;;5080924;28;20039;-82
2021/06/26 11:09:07;;;;;;;5.63;3.50;;;;;;;;;;5079627;28;20123;-81
2021/06/26 11:11:40;;;;;;;4.78;3.20;;;;;;;;;;5079491;28;20064;-78
2021/06/26 11:14:10;;;;;;;3.13;2.83;;;;;;;;;;5077957;28;20428;-77
2021/06/26 11:16:38;;;;;;;5.43;3.10;;;;;;;;;;5079039;28;20040;-82
2021/06/26 11:19:03;;;;;;;6.00;3.10;;;;;;;;;;5080259;28;20024;-79
2021/06/26 11:21:37;;;;;;;7.70;2.80;;;;;;;;;;5080501;28;20044;-79
2021/06/26 11:24:02;;;;;;;7.72;3.30;;;;;;;;;;5079641;28;20490;-80
2021/06/26 11:26:28;;;;;;;5.47;3.20;;;;;;;;;;5081267;28;20039;-80
2021/06/26 11:28:53;;;;;;;5.88;3.47;;;;;;;;;;5081001;28;20079;-79
2021/06/26 11:31:18;;;;;;;6.63;3.40;;;;;;;;;;5082167;28;20043;-79
2021/06/26 11:33:44;;;;;;;4.45;2.97;;;;;;;;;;5082122;28;20029;-79
2021/06/26 11:36:11;;;;;;;4.43;3.00;;;;;;;;;;5080638;28;20440;-79
2021/06/26 11:38:37;;;;;;;5.25;2.83;;;;;;;;;;5078994;28;20497;-78
2021/06/26 11:41:08;;;;;;;6.00;3.22;;;;;;;;;;5078830;28;20119;-78
2021/06/26 11:43:34;;;;;;;10.40;3.22;;;;;;;;;;5080041;28;20111;-79
2021/06/26 11:46:04;;;;;;;8.52;3.20;;;;;;;;;;5080356;28;20046;-78
2021/06/26 11:48:31;;;;;;;4.47;3.10;;;;;;;;;;5077619;28;20458;-79
2021/06/26 11:50:57;;;;;;;5.78;2.67;;;;;;;;;;5078051;28;20032;-77
2021/06/26 11:53:25;;;;;;;7.10;3.05;;;;;;;;;;5077167;28;20410;-80
2021/06/26 11:55:58;;;;;;;3.47;3.00;;;;;;;;;;5078765;28;20052;-80
2021/06/26 11:58:51;;;;;;;3.83;2.95;;;;;;;;;;5076690;28;20028;-78
2021/06/26 12:01:36;;;;;;;4.05;2.75;;;;;;;;;;5078512;28;20029;-78
2021/06/26 12:04:02;;;;;;;3.30;2.40;;;;;;;;;;5079428;28;20024;-79
2021/06/26 12:06:35;;;;;;;3.83;3.08;;;;;;;;;;5080918;28;20044;-78
2021/06/26 12:09:00;;;;;;;3.17;2.83;;;;;;;;;;5081045;28;20029;-78
2021/06/26 12:11:35;;;;;;;10.10;2.95;;;;;;;;;;5079808;28;20092;-78
2021/06/26 12:14:01;;;;;;;4.38;3.10;;;;;;;;;;5078627;28;20048;-78
2021/06/26 12:16:30;;;;;;;5.95;3.25;;;;;;;;;;5079908;28;20036;-77
2021/06/26 12:19:01;;;;;;;2.92;2.50;;;;;;;;;;5076802;28;20036;-78
2021/06/26 12:21:39;;;;;;;3.90;2.80;;;;;;;;;;5072013;28;20480;-80
2021/06/26 12:24:05;;;;;;;6.13;2.85;;;;;;;;;;5060077;28;20037;-80
2021/06/26 12:26:30;;;;;;;4.00;2.55;;;;;;;;;;5058952;28;20033;-80
2021/06/26 12:28:56;;;;;;;3.90;2.60;;;;;;;;;;5059024;28;20037;-81
2021/06/26 12:31:23;;;;;;;4.68;2.78;;;;;;;;;;5058354;28;20052;-80
2021/06/26 12:34:06;;;;;;;2.97;2.58;;;;;;;;;;5059057;28;20040;-80
2021/06/26 12:36:32;;;;;;;3.70;2.63;;;;;;;;;;5057688;28;20040;-80
2021/06/26 12:38:58;;;;;;;2.70;2.47;;;;;;;;;;5058527;28;20033;-80
2021/06/26 12:41:26;;;;;;;4.72;2.85;;;;;;;;;;5057292;28;20082;-80
2021/06/26 12:43:53;;;;;;;5.43;3.40;;;;;;;;;;5056205;28;20394;-80
2021/06/26 12:46:20;;;;;;;5.20;2.70;;;;;;;;;;5058165;28;20536;-80
2021/06/26 12:48:49;;;;;;;4.53;2.67;;;;;;;;;;5057868;28;20045;-80
2021/06/26 12:51:23;;;;;;;5.85;2.80;;;;;;;;;;5066606;28;20040;-79
2021/06/26 12:53:50;;;;;;;4.97;3.00;;;;;;;;;;5081830;28;20048;-79
2021/06/26 12:56:25;;;;;;;4.22;2.97;;;;;;;;;;5078909;28;20278;-79
2021/06/26 12:58:59;;;;;;;3.88;3.13;;;;;;;;;;5078031;28;20047;-80
2021/06/26 13:01:35;;;;;;;9.35;3.53;;;;;;;;;;5073746;28;20064;-79
2021/06/26 13:04:01;;;;;;;3.78;3.13;;;;;;;;;;5073855;28;20044;-80
2021/06/26 13:06:27;;;;;;;3.58;2.95;;;;;;;;;;5078994;28;20024;-80
2021/06/26 13:08:55;;;;;;;4.05;3.20;;;;;;;;;;5078383;28;20520;-79
2021/06/26 13:11:39;;;;;;;6.07;3.00;;;;;;;;;;5076896;28;20028;-79
2021/06/26 13:14:14;;;;;;;6.47;2.70;;;;;;;;;;5076687;28;20029;-79
2021/06/26 13:16:40;;;;;;;;;;;;;;;;;;5077331;28;20094;-79
2021/06/26 13:19:08;;;;;;;3.70;3.05;;;;;;;;;;5078761;28;19913;-79
2021/06/26 13:21:34;;;;;;;7.20;3.08;;;;;;;;;;5078443;28;20077;-79
2021/06/26 13:24:01;;;;;;;4.40;3.00;;;;;;;;;;5074599;28;20028;-79
2021/06/26 13:26:27;;;;;;;6.00;3.03;;;;;;;;;;5080692;28;20063;-79
2021/06/26 13:28:54;;;;;;;4.97;2.58;;;;;;;;;;5077931;28;20041;-79
2021/06/26 13:31:20;;;;;;;4.07;3.03;;;;;;;;;;5075725;28;20028;-78
2021/06/26 13:33:46;;;;;;;4.05;2.75;;;;;;;;;;5077289;28;20060;-77
2021/06/26 13:36:13;;;;;;;3.88;2.92;;;;;;;;;;5075423;28;20407;-78
2021/06/26 13:38:39;;;;;;;4.30;2.80;;;;;;;;;;5075024;28;20162;-78
2021/06/26 13:41:04;;;;;;;5.13;3.25;;;;;;;;;;5076990;28;20090;-78
2021/06/26 13:43:30;;;;;;;2.78;2.47;;;;;;;;;;5070337;28;20032;-78
2021/06/26 13:45:55;;;;;;;3.97;2.92;;;;;;;;;;5060596;28;20373;-78
2021/06/26 13:48:21;;;;;;;3.88;2.40;;;;;;;;;;5057325;28;20426;-81
2021/06/26 13:50:46;;;;;;;5.57;3.28;;;;;;;;;;5057864;28;20498;-79
2021/06/26 13:53:12;;;;;;;4.57;2.95;;;;;;;;;;5058883;28;20510;-79
2021/06/26 13:55:38;;;;;;;3.58;2.70;;;;;;;;;;5058612;28;20458;-79
2021/06/26 13:58:03;;;;;;;2.95;2.63;;;;;;;;;;5055624;28;20028;-78
2021/06/26 14:00:29;;;;;;;6.47;2.58;;;;;;;;;;5073629;28;20459;-77
2021/06/26 14:02:56;;;;;;;5.45;2.60;;;;;;;;;;5071381;28;20042;-78
2021/06/26 14:05:22;;;;;;;5.10;3.10;;;;;;;;;;5072891;28;20489;-79
2021/06/26 14:07:47;;;;;;;6.32;3.83;;;;;;;;;;5072294;28;20032;-77
2021/06/26 14:10:12;;;;;;;12.90;10.05;;;;;;;;;;5072460;28;20032;-77
2021/06/26 14:12:38;;;;;;;8.70;5.65;;;;;;;;;;5071820;28;20119;-77
2021/06/26 14:15:04;;;;;;;4.50;3.10;;;;;;;;;;5072424;28;20035;-77
2021/06/26 14:17:30;;;;;;;5.47;2.92;;;;;;;;;;5067245;28;20111;-76
2021/06/26 14:19:55;;;;;;;7.45;3.30;;;;;;;;;;5059559;28;20143;-77
2021/06/26 14:22:21;;;;;;;3.58;2.97;;;;;;;;;;5061928;28;20040;-77
2021/06/26 14:24:46;;;;;;;4.25;3.00;;;;;;;;;;5072327;28;20039;-76
2021/06/26 14:27:12;;;;;;;4.32;2.75;;;;;;;;;;5072138;28;20041;-77
2021/06/26 14:29:37;;;;;;;3.10;2.45;;;;;;;;;;5071171;28;20446;-77
2021/06/26 14:32:04;;;;;;;5.93;3.00;;;;;;;;;;5068842;28;20051;-77
2021/06/26 14:34:30;;;;;;;4.55;2.85;;;;;;;;;;5073734;28;20032;-77
2021/06/26 14:36:56;;;;;;;3.78;2.67;;;;;;;;;;5075370;28;20032;-77
2021/06/26 14:39:23;;;;;;;3.58;2.85;;;;;;;;;;5073947;28;20035;-77